Time;durP1;ratioP1;P1;durP2;ratioP2;P2;SDS_P1;SDS_P2;PMS_P1;PMS_P2;Temp;Humidity;BMP_temperature;BMP_pressure;BME280_temperature;BME280_humidity;BME280_pressure;Samples;Min_cycle;Max_cycle;Signal;HPM_P1;HPM_P2
2022/05/01 00:00:02;;;;;;;6.78;4.05;;;27.20;94.80;;;;;;1919941;73;21105;-80
2022/05/01 00:02:33;;;;;;;5.58;3.92;;;27.30;94.20;;;;;;1935195;73;21602;-79
2022/05/01 00:05:04;;;;;;;5.37;4.10;;;27.30;93.90;;;;;;1903565;73;21667;-79
2022/05/01 00:07:36;;;;;;;24.72;10.43;;;27.30;94.20;;;;;;1912332;75;21153;-80
2022/05/01 00:10:09;;;;;;;13.53;7.33;;;27.40;94.20;;;;;;1910597;73;21150;-80
2022/05/01 00:12:40;;;;;;;14.35;7.30;;;27.40;94.10;;;;;;1913104;73;21611;-80
2022/05/01 00:15:12;;;;;;;7.35;4.35;;;27.40;93.90;;;;;;1907329;74;21061;-79
2022/05/01 00:17:43;;;;;;;5.53;3.50;;;27.50;94.00;;;;;;1909361;74;21607;-80
2022/05/01 00:20:15;;;;;;;5.78;3.60;;;27.50;93.90;;;;;;1908353;73;21163;-80
2022/05/01 00:22:46;;;;;;;7.58;4.03;;;27.50;94.20;;;;;;1900596;73;21060;-80
2022/05/01 00:25:17;;;;;;;9.75;4.37;;;27.50;93.80;;;;;;1889927;74;21158;-80
2022/05/01 00:27:48;;;;;;;4.45;3.58;;;27.50;93.70;;;;;;1911329;74;21657;-80
2022/05/01 00:30:20;;;;;;;6.90;3.85;;;27.50;94.00;;;;;;1912293;73;21084;-80
2022/05/01 00:38:01;;;;;;;7.80;4.03;;;27.60;93.50;;;;;;1899348;74;21174;-81
2022/05/01 00:40:31;;;;;;;5.08;3.52;;;27.60;93.60;;;;;;1896345;73;21547;-80
2022/05/01 00:43:04;;;;;;;6.33;3.60;;;27.70;93.60;;;;;;1895968;74;21166;-80
2022/05/01 00:45:35;;;;;;;5.97;3.27;;;27.70;93.60;;;;;;1899650;73;21140;-79
2022/05/01 00:48:06;;;;;;;4.50;3.35;;;27.70;93.40;;;;;;1906371;73;21087;-79
2022/05/01 00:50:41;;;;;;;5.83;3.72;;;27.70;93.40;;;;;;1884207;74;21114;-79
2022/05/01 00:53:12;;;;;;;6.62;3.60;;;27.70;93.40;;;;;;1878812;74;21115;-79
2022/05/01 00:55:44;;;;;;;5.50;4.03;;;27.80;93.40;;;;;;1913505;73;21241;-79
2022/05/01 00:58:15;;;;;;;5.70;4.12;;;27.70;93.40;;;;;;1895894;74;21189;-80
2022/05/01 01:00:47;;;;;;;7.03;4.92;;;27.80;93.50;;;;;;1901783;73;21788;-80
2022/05/01 01:03:18;;;;;;;6.95;4.83;;;27.80;93.40;;;;;;1896691;73;21140;-79
2022/05/01 01:05:49;;;;;;;6.20;4.30;;;27.90;93.50;;;;;;1893159;74;21190;-80
2022/05/01 01:08:21;;;;;;;6.30;3.92;;;27.90;93.50;;;;;;1881731;74;21135;-80
2022/05/01 01:10:52;;;;;;;4.78;3.90;;;28.00;93.20;;;;;;1854477;75;21130;-80
2022/05/01 01:13:26;;;;;;;5.70;3.95;;;28.00;93.20;;;;;;1874901;74;21081;-80
2022/05/01 01:15:58;;;;;;;7.33;4.60;;;28.00;93.10;;;;;;1861773;75;21161;-80
2022/05/01 01:18:29;;;;;;;7.00;5.33;;;28.00;93.00;;;;;;1889021;73;21130;-79
2022/05/01 01:21:00;;;;;;;6.15;5.30;;;28.10;93.10;;;;;;1875964;74;21160;-80
2022/05/01 01:23:33;;;;;;;6.25;4.72;;;28.10;93.10;;;;;;1873562;74;21210;-79
2022/05/01 01:26:07;;;;;;;7.08;4.35;;;28.10;93.10;;;;;;1857495;75;21639;-80
2022/05/01 01:28:43;;;;;;;6.00;4.25;;;28.10;93.10;;;;;;1883617;74;21162;-79
2022/05/01 01:33:49;;;;;;;6.60;3.87;;;28.30;93.00;;;;;;1912408;73;21091;-80
2022/05/01 01:36:22;;;;;;;7.47;4.78;;;28.30;92.90;;;;;;1865043;74;21099;-80
2022/05/01 01:38:53;;;;;;;6.45;4.53;;;28.40;92.80;;;;;;1871942;75;21135;-81
2022/05/01 01:41:26;;;;;;;5.05;3.75;;;28.40;92.80;;;;;;1874568;74;21124;-80
2022/05/01 01:43:58;;;;;;;6.17;4.83;;;28.40;92.80;;;;;;1879154;74;21108;-80
2022/05/01 01:46:33;;;;;;;6.75;4.70;;;28.40;92.80;;;;;;1867128;76;21151;-80
2022/05/01 01:49:07;;;;;;;7.17;4.78;;;28.50;92.80;;;;;;1895023;74;21540;-81
2022/05/01 01:51:39;;;;;;;6.65;4.67;;;28.50;92.80;;;;;;1894676;74;21645;-81
2022/05/01 01:54:10;;;;;;;6.60;4.10;;;28.60;92.80;;;;;;1829759;74;21120;-80
2022/05/01 01:56:43;;;;;;;6.87;3.95;;;28.60;92.60;;;;;;1924370;73;21504;-80
2022/05/01 01:59:13;;;;;;;6.10;4.30;;;28.60;92.40;;;;;;1915490;73;21587;-81
2022/05/01 02:01:45;;;;;;;6.92;4.53;;;28.70;92.60;;;;;;1914040;74;21694;-79
2022/05/01 02:04:17;;;;;;;7.83;4.70;;;28.80;92.90;;;;;;1891408;74;21107;-80
2022/05/01 02:06:51;;;;;;;6.20;4.30;;;28.80;92.50;;;;;;1881607;74;21182;-80
2022/05/01 02:09:22;;;;;;;6.05;4.20;;;28.90;92.40;;;;;;1885628;74;21787;-79
2022/05/01 02:11:53;;;;;;;6.50;3.42;;;28.90;92.30;;;;;;1892744;74;21690;-80
2022/05/01 02:14:24;;;;;;;6.70;3.60;;;29.00;92.00;;;;;;1890016;73;21618;-81
2022/05/01 02:16:57;;;;;;;3.85;2.87;;;29.00;91.80;;;;;;1886480;74;21071;-80
2022/05/01 02:19:28;;;;;;;5.78;3.83;;;29.10;91.50;;;;;;1895043;73;21612;-80
2022/05/01 02:21:59;;;;;;;4.30;3.40;;;29.20;91.40;;;;;;1876857;73;21538;-81
2022/05/01 02:24:30;;;;;;;4.75;3.42;;;29.30;91.00;;;;;;1896286;73;21625;-81
2022/05/01 02:27:02;;;;;;;4.75;2.90;;;29.40;91.20;;;;;;1897805;73;21064;-80
2022/05/01 02:29:33;;;;;;;5.03;3.02;;;29.60;91.10;;;;;;1911981;73;21151;-81
2022/05/01 02:32:04;;;;;;;5.90;3.17;;;29.60;90.80;;;;;;1857215;75;21231;-81
2022/05/01 02:34:38;;;;;;;4.40;3.05;;;29.70;90.60;;;;;;1898589;72;21140;-82
2022/05/01 02:37:09;;;;;;;4.78;3.12;;;29.80;90.40;;;;;;1862002;74;21087;-81
2022/05/01 02:39:40;;;;;;;3.72;3.00;;;29.90;90.40;;;;;;1876532;74;21096;-81
2022/05/01 02:42:11;;;;;;;5.28;2.80;;;30.00;90.10;;;;;;1882999;74;21195;-81
2022/05/01 02:44:43;;;;;;;3.37;2.83;;;30.00;89.70;;;;;;1898689;72;21575;-81
2022/05/01 02:47:14;;;;;;;3.65;2.70;;;30.10;89.80;;;;;;1885018;71;21110;-80
2022/05/01 02:49:46;;;;;;;3.58;2.95;;;30.20;89.10;;;;;;1894513;73;21196;-80
2022/05/01 02:52:17;;;;;;;4.17;3.20;;;30.30;88.90;;;;;;1907546;73;21152;-80
2022/05/01 02:54:48;;;;;;;5.20;3.25;;;30.30;88.60;;;;;;1876487;74;21300;-81
2022/05/01 02:57:19;;;;;;;5.62;3.58;;;30.30;89.00;;;;;;1897934;74;21068;-81
2022/05/01 02:59:50;;;;;;;4.67;3.10;;;30.40;89.30;;;;;;1890647;74;21191;-80
2022/05/01 03:02:21;;;;;;;5.97;3.72;;;30.50;89.70;;;;;;1864817;74;21161;-81
2022/05/01 03:04:53;;;;;;;5.60;3.80;;;30.70;88.80;;;;;;1879520;74;21591;-80
2022/05/01 03:07:23;;;;;;;6.08;3.85;;;30.80;87.40;;;;;;1885693;74;21161;-79
2022/05/01 03:09:54;;;;;;;10.80;3.77;;;30.80;87.90;;;;;;1848999;76;21235;-80
2022/05/01 03:12:25;;;;;;;4.20;3.37;;;30.80;87.50;;;;;;1902563;73;21563;-81
2022/05/01 03:14:58;;;;;;;3.98;2.90;;;30.90;87.40;;;;;;1899831;73;21181;-80
2022/05/01 03:22:10;;;;;;;3.33;2.70;;;30.90;87.60;;;;;;1911660;73;21190;-80
2022/05/01 03:22:33;;;;;;;4.22;3.00;;;30.80;86.80;;;;;;1844940;76;21128;-80
2022/05/01 03:25:04;;;;;;;3.92;2.62;;;30.80;87.20;;;;;;1855774;74;21112;-81
2022/05/01 03:27:35;;;;;;;3.83;2.80;;;30.80;87.40;;;;;;1889522;73;21176;-80
2022/05/01 03:30:16;;;;;;;4.58;2.75;;;30.80;86.10;;;;;;1892635;73;21179;-80
2022/05/01 03:32:39;;;;;;;3.85;3.02;;;30.80;86.50;;;;;;1881480;74;21100;-82
2022/05/01 03:35:10;;;;;;;4.83;2.80;;;30.80;86.80;;;;;;1892721;74;21208;-80
2022/05/01 03:37:42;;;;;;;3.90;2.47;;;30.80;86.80;;;;;;1845531;74;21100;-80
2022/05/01 03:40:15;;;;;;;7.67;3.95;;;30.80;86.70;;;;;;1877244;72;21213;-81
2022/05/01 03:42:46;;;;;;;3.15;2.42;;;30.90;86.80;;;;;;1898369;72;21068;-80
2022/05/01 03:45:17;;;;;;;5.10;2.98;;;30.90;86.70;;;;;;1924445;73;21075;-80
2022/05/01 03:47:48;;;;;;;3.15;2.40;;;30.90;86.50;;;;;;1895084;73;21199;-81
2022/05/01 03:50:19;;;;;;;4.35;2.92;;;30.90;86.20;;;;;;1893473;72;21538;-80
2022/05/01 03:52:51;;;;;;;4.15;2.67;;;30.90;86.80;;;;;;1886128;74;21211;-80
2022/05/01 03:55:22;;;;;;;19.37;7.62;;;31.10;85.80;;;;;;1886586;74;21591;-80
2022/05/01 03:57:53;;;;;;;5.08;2.90;;;31.30;84.30;;;;;;1892795;74;21160;-81
2022/05/01 04:00:25;;;;;;;2.65;2.02;;;31.50;84.90;;;;;;1883192;74;21177;-80
2022/05/01 04:02:56;;;;;;;3.65;2.22;;;31.60;82.50;;;;;;1860065;74;21146;-79
2022/05/01 04:05:27;;;;;;;2.80;2.20;;;31.60;82.10;;;;;;1863542;74;21102;-80
2022/05/01 04:07:58;;;;;;;3.02;1.92;;;31.50;82.70;;;;;;1875468;74;21164;-81
2022/05/01 04:10:29;;;;;;;5.28;2.12;;;31.50;82.60;;;;;;1892451;74;21777;-81
2022/05/01 04:13:00;;;;;;;3.47;2.00;;;31.40;82.80;;;;;;1871696;74;21112;-81
2022/05/01 04:15:31;;;;;;;3.35;2.12;;;31.40;83.10;;;;;;1882436;74;21248;-81
2022/05/01 04:18:02;;;;;;;3.83;1.95;;;31.50;82.40;;;;;;1873892;75;21250;-81
2022/05/01 04:20:35;;;;;;;2.72;1.95;;;31.50;82.50;;;;;;1844050;76;21168;-81
2022/05/01 04:23:07;;;;;;;3.77;2.35;;;31.70;82.00;;;;;;1895730;73;21176;-81
2022/05/01 04:25:38;;;;;;;2.37;1.80;;;31.70;81.80;;;;;;1877471;73;21149;-80
2022/05/01 04:28:12;;;;;;;2.90;2.08;;;31.70;82.00;;;;;;1861934;74;21237;-80
2022/05/01 04:30:45;;;;;;;3.10;2.17;;;31.70;82.00;;;;;;1879422;74;21156;-81
2022/05/01 04:33:18;;;;;;;3.30;2.08;;;31.70;81.20;;;;;;1862793;74;21186;-80
2022/05/01 04:35:51;;;;;;;2.75;2.15;;;31.60;81.90;;;;;;1874483;74;21308;-79
2022/05/01 04:38:24;;;;;;;3.05;1.87;;;31.70;81.70;;;;;;1852966;75;21114;-82
2022/05/01 04:41:00;;;;;;;2.50;2.27;;;31.70;81.50;;;;;;1896453;73;21085;-81
2022/05/01 04:43:31;;;;;;;3.10;2.22;;;31.80;80.60;;;;;;1857733;75;21102;-81
2022/05/01 04:46:01;;;;;;;5.17;2.40;;;31.80;81.20;;;;;;1873446;74;21109;-80
2022/05/01 04:48:32;;;;;;;3.98;2.17;;;31.90;81.00;;;;;;1872129;74;21571;-81
2022/05/01 04:51:06;;;;;;;3.55;2.33;;;32.10;81.30;;;;;;1885444;74;21225;-80
2022/05/01 04:53:37;;;;;;;2.72;1.98;;;32.20;80.50;;;;;;1888287;74;21147;-79
2022/05/01 04:58:49;;;;;;;3.92;1.90;;;32.50;78.60;;;;;;1891430;74;21210;-81
2022/05/01 05:01:24;;;;;;;4.83;2.15;;;32.60;78.90;;;;;;1886057;74;21104;-83
2022/05/01 05:03:59;;;;;;;3.15;2.15;;;32.70;78.20;;;;;;1888671;74;21138;-80
2022/05/01 05:06:33;;;;;;;2.12;1.75;;;32.70;78.10;;;;;;1875079;74;21163;-79
2022/05/01 05:12:13;;;;;;;2.62;1.80;;;32.80;77.20;;;;;;1814027;74;21251;-80
2022/05/01 05:15:05;;;;;;;;;;;;;;;;;;;;;
2022/05/01 05:17:35;;;;;;;2.95;1.67;;;32.80;76.60;;;;;;1879715;74;21122;-80
2022/05/01 05:20:13;;;;;;;2.95;2.00;;;32.70;76.70;;;;;;1882502;74;21119;-81
2022/05/01 05:22:47;;;;;;;2.95;2.12;;;32.50;77.20;;;;;;1863306;75;21252;-80
2022/05/01 05:25:20;;;;;;;2.00;1.50;;;32.50;78.00;;;;;;1860897;74;21103;-80
2022/05/01 05:28:00;;;;;;;3.27;1.65;;;32.50;77.90;;;;;;1896722;73;21180;-80
2022/05/01 05:30:32;;;;;;;2.58;2.00;;;32.60;78.00;;;;;;1862220;75;21157;-80
2022/05/01 05:33:05;;;;;;;3.30;1.95;;;32.80;77.10;;;;;;1885427;74;21100;-80
2022/05/01 05:35:36;;;;;;;2.75;2.00;;;32.90;76.50;;;;;;1859356;74;21178;-78
2022/05/01 05:38:10;;;;;;;3.52;1.90;;;32.90;76.70;;;;;;1875451;74;21544;-80
2022/05/01 05:40:41;;;;;;;2.70;1.50;;;33.00;76.40;;;;;;1877177;74;21261;-80
2022/05/01 05:43:12;;;;;;;3.50;1.77;;;33.00;75.80;;;;;;1852473;75;21788;-80
2022/05/01 05:45:43;;;;;;;1.87;1.50;;;33.10;75.50;;;;;;1853421;76;21109;-80
2022/05/01 05:48:15;;;;;;;4.28;1.90;;;33.20;75.60;;;;;;1908397;73;21659;-80
2022/05/01 05:50:45;;;;;;;2.60;2.15;;;33.20;75.50;;;;;;1903562;74;21215;-80
2022/05/01 05:53:17;;;;;;;2.15;1.70;;;33.30;74.80;;;;;;1903734;73;21155;-80
2022/05/01 05:55:48;;;;;;;3.15;1.90;;;33.30;74.90;;;;;;1882709;74;21217;-80
2022/05/01 05:58:19;;;;;;;2.65;1.60;;;33.30;74.20;;;;;;1872456;75;21182;-80
2022/05/01 06:00:50;;;;;;;2.27;1.77;;;33.30;74.10;;;;;;1875832;74;21072;-80
2022/05/01 06:03:20;;;;;;;4.00;2.10;;;33.20;74.90;;;;;;1881052;75;21183;-80
2022/05/01 06:05:52;;;;;;;5.00;2.10;;;33.20;74.30;;;;;;1880502;75;21634;-81
2022/05/01 06:08:24;;;;;;;3.15;2.12;;;33.10;74.80;;;;;;1864341;74;21163;-81
2022/05/01 06:10:54;;;;;;;3.77;1.77;;;33.10;74.70;;;;;;1853419;76;21147;-81
2022/05/01 06:13:26;;;;;;;3.05;1.82;;;33.00;73.80;;;;;;1866293;75;21111;-81
2022/05/01 06:15:57;;;;;;;2.10;1.62;;;33.00;74.20;;;;;;1894175;73;21268;-81
2022/05/01 06:18:28;;;;;;;3.70;2.00;;;33.00;74.10;;;;;;1901025;73;21614;-81
2022/05/01 06:20:59;;;;;;;2.67;1.77;;;33.10;73.50;;;;;;1874200;74;21649;-81
2022/05/01 06:23:30;;;;;;;2.10;1.82;;;33.10;73.10;;;;;;1884646;74;21165;-81
2022/05/01 06:26:03;;;;;;;2.95;1.90;;;33.00;72.90;;;;;;1849243;76;21687;-80
2022/05/01 06:28:33;;;;;;;2.55;1.87;;;32.90;74.00;;;;;;1895317;73;21234;-80
2022/05/01 06:31:05;;;;;;;2.98;1.70;;;33.00;74.30;;;;;;1894691;74;21598;-81
2022/05/01 06:33:40;;;;;;;2.15;1.70;;;33.10;73.70;;;;;;1855742;75;21552;-80
2022/05/01 06:36:11;;;;;;;2.55;1.60;;;33.10;72.70;;;;;;1877961;76;21076;-79
2022/05/01 06:38:43;;;;;;;2.83;1.92;;;33.10;73.30;;;;;;1877535;74;21602;-79
2022/05/01 06:41:14;;;;;;;2.80;1.82;;;33.00;73.50;;;;;;1898565;73;21873;-79
2022/05/01 06:43:45;;;;;;;2.60;1.50;;;32.90;74.10;;;;;;1899477;73;21064;-80
2022/05/01 06:46:16;;;;;;;2.98;1.90;;;32.90;74.20;;;;;;1883694;74;21109;-80
2022/05/01 06:48:47;;;;;;;2.37;1.75;;;32.90;73.00;;;;;;1893893;73;21100;-80
2022/05/01 06:51:18;;;;;;;2.45;1.92;;;32.80;73.10;;;;;;1860720;75;21693;-80
2022/05/01 06:53:49;;;;;;;3.77;2.00;;;32.80;74.30;;;;;;1885777;74;21148;-80
2022/05/01 06:56:20;;;;;;;2.00;1.50;;;32.80;74.20;;;;;;1884193;74;21112;-80
2022/05/01 06:58:51;;;;;;;2.50;1.65;;;32.90;74.60;;;;;;1858058;75;21613;-80
2022/05/01 07:01:22;;;;;;;3.30;2.02;;;32.90;74.90;;;;;;1876253;75;21104;-80
2022/05/01 07:03:54;;;;;;;3.25;1.98;;;32.90;74.40;;;;;;1843144;76;21177;-79
2022/05/01 07:06:28;;;;;;;2.67;1.90;;;33.00;73.80;;;;;;1888097;73;21221;-80
2022/05/01 07:09:00;;;;;;;2.50;1.57;;;33.00;73.50;;;;;;1911316;73;21150;-79
2022/05/01 07:11:33;;;;;;;3.42;1.90;;;32.90;73.90;;;;;;1911179;73;21149;-79
2022/05/01 07:14:04;;;;;;;2.45;1.80;;;32.90;74.30;;;;;;1902263;72;21641;-80
2022/05/01 07:16:35;;;;;;;3.27;1.80;;;32.90;72.70;;;;;;1886731;72;21070;-80
2022/05/01 07:19:06;;;;;;;2.98;2.00;;;32.90;73.00;;;;;;1900576;73;21479;-80
2022/05/01 07:21:37;;;;;;;3.00;2.10;;;32.80;73.20;;;;;;1890624;73;21628;-80
2022/05/01 07:24:09;;;;;;;2.83;2.20;;;32.80;73.80;;;;;;1900277;73;21088;-80
2022/05/01 07:26:39;;;;;;;2.70;2.08;;;32.70;74.10;;;;;;1916353;73;21056;-81
2022/05/01 07:29:10;;;;;;;3.37;2.10;;;32.70;74.20;;;;;;1901564;73;21719;-79
2022/05/01 07:31:43;;;;;;;3.05;2.40;;;32.70;74.10;;;;;;1898080;72;21142;-79
2022/05/01 07:34:14;;;;;;;3.40;2.10;;;32.70;74.00;;;;;;1927097;73;21662;-78
2022/05/01 07:36:45;;;;;;;3.22;2.35;;;32.70;73.70;;;;;;1897259;73;21102;-79
2022/05/01 07:39:16;;;;;;;2.92;2.47;;;32.70;73.20;;;;;;1907597;72;21138;-79
2022/05/01 07:42:04;;;;;;;3.98;2.85;;;32.70;73.40;;;;;;1893965;73;21207;-80
2022/05/01 07:44:35;;;;;;;3.77;2.47;;;32.60;72.80;;;;;;1915727;71;21150;-80
2022/05/01 07:47:06;;;;;;;3.10;2.37;;;32.60;73.30;;;;;;1906747;73;21097;-79
2022/05/01 07:49:43;;;;;;;5.67;3.02;;;32.50;73.30;;;;;;1888060;74;21584;-80
2022/05/01 07:52:19;;;;;;;;;;;32.40;74.30;;;;;;1875367;74;21832;-80
2022/05/01 07:54:51;;;;;;;4.65;2.45;;;32.50;75.00;;;;;;1893891;74;20118;-80
2022/05/01 07:57:26;;;;;;;3.35;2.33;;;32.60;75.00;;;;;;1887584;74;21156;-80
2022/05/01 07:59:55;;;;;;;3.72;2.85;;;32.60;74.90;;;;;;1898748;74;21151;-80
2022/05/01 08:02:27;;;;;;;4.45;2.80;;;32.70;75.30;;;;;;1890442;74;21171;-79
2022/05/01 08:04:58;;;;;;;3.72;2.58;;;32.70;74.20;;;;;;1878935;74;21182;-81
2022/05/01 08:07:32;;;;;;;5.17;3.35;;;32.70;73.40;;;;;;1877183;75;21224;-81
2022/05/01 08:10:03;;;;;;;4.50;2.90;;;32.70;74.20;;;;;;1879426;74;21218;-81
2022/05/01 08:12:34;;;;;;;5.45;3.33;;;32.80;73.40;;;;;;1878216;74;21163;-82
2022/05/01 08:15:05;;;;;;;6.08;3.20;;;32.80;73.50;;;;;;1867990;74;21104;-80
2022/05/01 08:17:36;;;;;;;4.35;3.17;;;32.90;72.80;;;;;;1895747;73;21759;-81
2022/05/01 08:22:41;;;;;;;4.12;3.00;;;33.00;72.50;;;;;;1898592;73;21210;-80
2022/05/01 08:25:13;;;;;;;9.75;8.20;;;33.00;71.30;;;;;;1869265;75;21111;-80
2022/05/01 08:27:44;;;;;;;4.80;3.65;;;33.00;70.40;;;;;;1884326;73;21697;-79
2022/05/01 08:30:15;;;;;;;3.77;3.27;;;33.00;71.20;;;;;;1914580;74;21169;-81
2022/05/01 08:32:46;;;;;;;3.50;3.20;;;33.10;71.40;;;;;;1911423;74;21143;-80
2022/05/01 08:35:17;;;;;;;3.80;2.90;;;33.10;71.90;;;;;;1888361;74;21185;-80
2022/05/01 08:37:48;;;;;;;3.45;3.05;;;33.10;71.80;;;;;;1882330;74;21104;-79
2022/05/01 08:40:19;;;;;;;3.83;2.95;;;33.10;71.50;;;;;;1898482;74;21677;-79
2022/05/01 08:42:52;;;;;;;5.72;3.30;;;33.00;71.50;;;;;;1896274;73;21166;-78
2022/05/01 08:45:26;;;;;;;3.72;3.25;;;33.00;72.30;;;;;;1877192;74;21681;-80
2022/05/01 08:48:00;;;;;;;4.37;2.85;;;33.00;72.30;;;;;;1891745;74;21207;-79
2022/05/01 08:50:32;;;;;;;3.30;3.00;;;33.00;72.70;;;;;;1876682;74;21151;-79
2022/05/01 08:53:04;;;;;;;3.77;3.12;;;33.00;72.70;;;;;;1896084;74;21097;-79
2022/05/01 08:55:35;;;;;;;5.55;3.50;;;33.00;72.90;;;;;;1888577;74;21275;-80
2022/05/01 08:58:06;;;;;;;4.83;3.00;;;33.00;72.70;;;;;;1904033;74;21632;-80
2022/05/01 09:00:37;;;;;;;5.40;3.10;;;33.00;72.90;;;;;;1880475;74;21760;-80
2022/05/01 09:03:08;;;;;;;4.35;3.55;;;32.90;73.30;;;;;;1850897;75;21804;-80
2022/05/01 09:05:42;;;;;;;5.17;3.62;;;32.90;72.90;;;;;;1868715;74;21096;-81
2022/05/01 09:08:13;;;;;;;5.67;3.60;;;32.90;73.30;;;;;;1882009;74;21096;-80
2022/05/01 09:10:46;;;;;;;4.42;3.45;;;32.80;72.50;;;;;;1858396;75;21174;-82
2022/05/01 09:13:39;;;;;;;4.33;3.42;;;32.90;72.30;;;;;;1897256;73;21116;-80
2022/05/01 09:16:22;;;;;;;4.67;3.52;;;32.90;72.60;;;;;;1887747;73;21056;-80
2022/05/01 09:18:52;;;;;;;4.25;3.65;;;32.90;72.30;;;;;;1907468;71;21113;-79
2022/05/01 09:21:23;;;;;;;4.08;3.67;;;32.90;72.70;;;;;;1845216;77;21227;-80
2022/05/01 09:23:54;;;;;;;4.20;3.35;;;32.80;72.80;;;;;;1887428;74;21589;-82
2022/05/01 09:26:25;;;;;;;4.67;3.70;;;32.80;72.60;;;;;;1882460;74;21154;-80
2022/05/01 09:28:57;;;;;;;5.65;3.70;;;32.70;72.80;;;;;;1878529;74;22129;-80
2022/05/01 09:31:30;;;;;;;4.58;3.92;;;32.70;73.00;;;;;;1875440;74;21257;-81
2022/05/01 09:34:03;;;;;;;4.85;3.92;;;32.70;73.30;;;;;;1875915;74;21674;-81
2022/05/01 09:36:37;;;;;;;4.97;3.85;;;32.70;73.40;;;;;;1878563;74;21595;-80
2022/05/01 09:39:14;;;;;;;5.60;4.67;;;32.70;73.10;;;;;;1874322;74;21139;-79
2022/05/01 09:41:49;;;;;;;4.95;4.12;;;32.70;73.00;;;;;;1888603;74;21155;-80
2022/05/01 09:44:22;;;;;;;4.58;3.30;;;32.70;73.10;;;;;;1893472;74;21119;-80
2022/05/01 09:46:54;;;;;;;5.58;3.75;;;32.70;72.20;;;;;;1884549;74;21242;-80
2022/05/01 09:49:27;;;;;;;4.65;3.85;;;32.70;72.20;;;;;;1893917;74;21104;-80
2022/05/01 09:52:02;;;;;;;4.03;3.62;;;32.70;72.50;;;;;;1862853;74;21676;-80
2022/05/01 09:54:33;;;;;;;4.72;4.15;;;32.70;72.40;;;;;;1890214;74;21150;-80
2022/05/01 09:57:05;;;;;;;6.55;4.28;;;32.60;72.50;;;;;;1857970;76;21195;-79
2022/05/01 09:59:38;;;;;;;5.12;4.20;;;32.60;72.70;;;;;;1853086;76;21117;-80
2022/05/01 10:02:09;;;;;;;8.15;4.70;;;32.60;73.00;;;;;;1906558;73;21076;-80
2022/05/01 10:04:40;;;;;;;5.28;4.00;;;32.60;72.80;;;;;;1900336;74;21146;-80
2022/05/01 10:07:11;;;;;;;4.87;4.08;;;32.60;73.00;;;;;;1912603;73;21189;-80
2022/05/01 10:09:44;;;;;;;6.15;4.78;;;32.70;73.30;;;;;;1911759;73;21157;-81
2022/05/01 10:12:17;;;;;;;5.92;4.83;;;32.60;73.30;;;;;;1904354;74;21093;-80
2022/05/01 10:14:50;;;;;;;5.28;4.65;;;32.60;73.40;;;;;;1916768;72;21099;-79
2022/05/01 10:17:21;;;;;;;5.35;4.85;;;32.60;73.60;;;;;;1881659;73;22088;-78
2022/05/01 10:19:55;;;;;;;7.10;4.65;;;32.60;73.50;;;;;;1878185;74;21191;-79
2022/05/01 10:22:29;;;;;;;5.83;4.87;;;32.60;73.80;;;;;;1866578;74;21218;-80
2022/05/01 10:25:03;;;;;;;5.92;5.00;;;32.50;73.60;;;;;;1875906;74;21163;-79
2022/05/01 10:27:39;;;;;;;4.62;4.22;;;32.50;73.60;;;;;;1865947;75;21182;-79
2022/05/01 10:32:48;;;;;;;5.10;4.60;;;32.40;73.70;;;;;;1886308;74;21168;-82
2022/05/01 10:35:26;;;;;;;7.78;4.87;;;32.40;74.00;;;;;;1886121;74;21139;-80
2022/05/01 10:38:11;;;;;;;9.68;8.58;;;32.40;74.50;;;;;;1873411;74;21199;-80
2022/05/01 10:40:44;;;;;;;5.78;4.37;;;32.30;74.80;;;;;;1868554;75;21132;-80
2022/05/01 10:43:17;;;;;;;7.20;5.20;;;32.30;74.50;;;;;;1875446;74;21130;-80
2022/05/01 10:45:48;;;;;;;6.10;4.90;;;32.40;74.60;;;;;;1864039;74;21140;-80
2022/05/01 10:48:21;;;;;;;5.42;4.75;;;32.40;74.80;;;;;;1882254;74;21229;-80
2022/05/01 10:50:52;;;;;;;5.20;4.65;;;32.30;75.10;;;;;;1853452;74;21695;-81
2022/05/01 10:53:23;;;;;;;5.05;4.37;;;32.30;75.20;;;;;;1903723;72;21201;-80
2022/05/01 10:55:55;;;;;;;4.85;4.35;;;32.30;75.40;;;;;;1914292;72;21162;-80
2022/05/01 10:58:30;;;;;;;6.33;4.62;;;32.30;75.40;;;;;;1857263;74;21187;-79
2022/05/01 11:01:03;;;;;;;6.35;4.45;;;32.20;75.90;;;;;;1848279;76;21132;-80
2022/05/01 11:03:34;;;;;;;5.42;4.80;;;32.20;76.90;;;;;;1911110;74;21579;-80
2022/05/01 11:06:09;;;;;;;5.30;4.47;;;32.10;77.80;;;;;;1913071;74;21077;-80
2022/05/01 11:08:45;;;;;;;6.28;4.60;;;32.00;77.90;;;;;;1916190;75;21350;-80
2022/05/01 11:11:20;;;;;;;5.30;4.58;;;32.00;78.50;;;;;;1896733;74;21135;-79
2022/05/01 11:13:53;;;;;;;5.85;4.90;;;31.90;79.00;;;;;;1889496;73;21199;-79
2022/05/01 11:16:26;;;;;;;6.17;4.42;;;31.80;78.70;;;;;;1885812;73;21080;-80
2022/05/01 11:18:57;;;;;;;20.27;4.70;;;31.70;78.40;;;;;;1884912;73;21209;-79
2022/05/01 11:21:34;;;;;;;20.40;2.45;;;31.60;78.70;;;;;;1894044;73;21153;-79
2022/05/01 11:24:13;;;;;;;10.48;1.10;;;31.30;79.30;;;;;;1910172;73;21073;-80
2022/05/01 11:26:43;;;;;;;5.05;1.50;;;30.90;80.80;;;;;;1898963;73;21227;-79
2022/05/01 11:29:17;;;;;;;4.33;1.20;;;30.50;82.70;;;;;;1861774;75;21153;-81
2022/05/01 11:31:49;;;;;;;4.10;0.98;;;30.10;84.30;;;;;;1879684;75;21158;-80
2022/05/01 11:34:27;;;;;;;3.67;0.90;;;29.70;86.00;;;;;;1886330;73;21143;-80
2022/05/01 11:37:06;;;;;;;2.92;0.80;;;29.30;87.60;;;;;;1851761;74;21122;-80
2022/05/01 11:39:39;;;;;;;1.87;0.70;;;29.00;88.30;;;;;;1869752;75;21195;-80
2022/05/01 11:42:13;;;;;;;5.40;0.93;;;28.80;89.60;;;;;;1852180;74;21252;-81
2022/05/01 11:44:44;;;;;;;6.22;0.68;;;28.60;90.30;;;;;;1849621;75;21871;-80
2022/05/01 11:47:16;;;;;;;8.93;0.80;;;28.40;90.90;;;;;;1882532;73;21127;-80
2022/05/01 11:49:49;;;;;;;3.52;0.50;;;28.20;91.30;;;;;;1901438;73;21277;-80
2022/05/01 11:52:24;;;;;;;1.92;0.45;;;28.00;91.60;;;;;;1898419;73;21547;-79
2022/05/01 11:54:56;;;;;;;3.95;0.75;;;27.90;91.40;;;;;;1891162;73;21190;-81
2022/05/01 12:02:54;;;;;;;4.22;0.80;;;27.60;91.40;;;;;;1833248;76;21174;-80
2022/05/01 12:05:25;;;;;;;2.47;0.50;;;27.50;91.50;;;;;;1808073;77;21138;-79
2022/05/01 12:07:57;;;;;;;1.67;0.60;;;27.40;91.70;;;;;;1796497;77;21244;-79
2022/05/01 12:10:28;;;;;;;2.05;0.70;;;27.30;91.70;;;;;;1806492;77;21543;-79
2022/05/01 12:13:08;;;;;;;2.37;0.57;;;27.20;91.90;;;;;;1782110;78;21500;-79
2022/05/01 12:15:39;;;;;;;2.98;0.85;;;27.10;91.30;;;;;;1795459;77;21194;-80
2022/05/01 12:18:10;;;;;;;2.50;0.70;;;27.00;91.50;;;;;;1793937;78;21200;-78
2022/05/01 12:20:41;;;;;;;3.62;0.98;;;26.90;91.60;;;;;;1803907;76;21134;-82
2022/05/01 12:23:14;;;;;;;3.35;0.62;;;26.80;91.90;;;;;;1797873;77;21132;-80
2022/05/01 12:25:50;;;;;;;3.05;0.62;;;26.80;92.00;;;;;;1777066;79;21453;-81
2022/05/01 12:28:20;;;;;;;3.42;0.85;;;26.70;92.20;;;;;;1789721;78;21177;-80
2022/05/01 12:30:54;;;;;;;2.47;0.50;;;26.60;92.40;;;;;;1807781;77;21244;-81
2022/05/01 12:33:28;;;;;;;3.87;0.68;;;26.60;92.50;;;;;;1769859;78;21242;-81
2022/05/01 12:36:01;;;;;;;3.85;0.80;;;26.50;92.80;;;;;;1769633;77;21167;-81
2022/05/01 12:38:32;;;;;;;4.53;0.88;;;26.50;92.50;;;;;;1768373;79;21139;-80
2022/05/01 12:46:13;;;;;;;2.22;0.40;;;26.40;92.50;;;;;;1775278;79;21113;-80
2022/05/01 12:48:45;;;;;;;1.70;0.30;;;26.40;92.40;;;;;;1791956;77;21175;-80
2022/05/01 12:51:17;;;;;;;1.72;0.37;;;26.40;92.50;;;;;;1801026;78;21121;-83
2022/05/01 12:53:48;;;;;;;1.57;0.45;;;26.30;92.60;;;;;;1816656;77;21155;-80
2022/05/01 12:56:22;;;;;;;1.72;0.47;;;26.30;92.70;;;;;;1824735;77;21154;-81
2022/05/01 12:58:52;;;;;;;5.00;0.68;;;26.30;92.90;;;;;;1816316;77;21213;-80
2022/05/01 13:01:27;;;;;;;1.80;0.40;;;26.20;93.10;;;;;;1826279;77;21878;-79
2022/05/01 13:03:58;;;;;;;2.72;0.62;;;26.10;93.20;;;;;;1801591;78;21188;-80
2022/05/01 13:06:32;;;;;;;1.45;0.50;;;26.10;93.30;;;;;;1796446;77;21198;-80
2022/05/01 13:09:04;;;;;;;3.83;0.53;;;26.10;93.60;;;;;;1792485;78;21263;-81
2022/05/01 13:11:41;;;;;;;1.72;0.57;;;26.10;93.70;;;;;;1780050;79;21208;-81
2022/05/01 13:14:32;;;;;;;;;;;;;;;;;;;;;
2022/05/01 13:16:50;;;;;;;3.30;0.50;;;26.10;93.70;;;;;;1836748;76;21150;-81
2022/05/01 13:19:26;;;;;;;1.90;0.60;;;26.10;93.80;;;;;;1805050;77;21251;-81
2022/05/01 13:21:56;;;;;;;1.10;0.40;;;26.10;94.00;;;;;;1782022;78;21783;-82
2022/05/01 13:24:30;;;;;;;1.00;0.45;;;26.10;94.00;;;;;;1798672;77;21156;-82
2022/05/01 13:27:20;;;;;;;2.30;0.57;;;26.10;93.80;;;;;;1805952;77;21744;-82
2022/05/01 13:29:41;;;;;;;1.67;0.62;;;26.10;93.80;;;;;;1808589;78;21236;-82
2022/05/01 13:32:19;;;;;;;2.12;0.65;;;26.10;93.80;;;;;;1814468;77;21105;-81
2022/05/01 13:34:46;;;;;;;2.00;0.53;;;26.10;93.90;;;;;;1809869;78;21677;-81
2022/05/01 13:37:18;;;;;;;2.27;0.60;;;26.10;93.90;;;;;;1814927;77;21649;-81
2022/05/01 13:44:54;;;;;;;2.40;0.50;;;26.10;93.70;;;;;;1834354;75;21224;-81
2022/05/01 13:47:26;;;;;;;1.85;0.60;;;26.10;93.60;;;;;;1799065;77;21678;-82
2022/05/01 13:49:57;;;;;;;2.45;0.50;;;26.00;93.50;;;;;;1825176;75;21204;-80